Anemona — 3EUT9 — position and weather

sailwx.info

Track history (hours):
 
Tides and Currents Weather Stations Pressure Air Temp Water Temp Dewpoint Dewpoint Depression Visibility Wind Speed Wind Dir Waves Ship Positions

Anemona

Last reported at 2016-Jul-23 20:08 UTC. Time now 2016-Aug-24 10:19 UTC.
Position S 26°59' E 153°52'.
Warning: this ship's position is 31 days out of date.

Length 192 m; draft 11.3 m.

Type: Cargo ship. MMSI: 355664000.

Date/timePositionNaut miles runAvg speedWind from/ knotsBaromVisibWave heightAir tempDewpointWater temp
2016-Jul-23 20:08S 26°59' E 153°52'810.3
2016-Jul-23 19:23S 27°07' E 153°51'29 9.8
2016-Jul-23 16:23S 27°36' E 153°50'8 9.6
2016-Jul-23 15:34S 27°44' E 153°50'1110.1
2016-Jul-23 14:28S 27°55' E 153°48'259 9.9
2016-Jul-22 12:13S 32°08' E 152°45'910.8
2016-Jul-22 11:23S 32°17' E 152°42'910.4
2016-Jul-22 10:33S 32°25' E 152°39'1110.6
2016-Jul-22 09:34S 32°35' E 152°34'1111.2
2016-Jul-22 08:34S 32°45' E 152°29'1111.2
2016-Jul-22 07:34S 32°55' E 152°23'2311.3
2016-Jul-22 05:34S 33°16' E 152°12'148 9.3
2016-Jul-21 13:33S 35°34' E 151°05'1110.7
2016-Jul-21 12:33S 35°44' E 151°01'1010.4
2016-Jul-21 11:34S 35°53' E 150°56'1010.1
2016-Jul-21 10:33S 36°03' E 150°51'1010.3
2016-Jul-21 09:33S 36°12' E 150°46'1010.4
2016-Jul-21 08:33S 36°22' E 150°41'1110.6
2016-Jul-21 07:34S 36°32' E 150°36'1110.5
2016-Jul-21 06:34S 36°41' E 150°31'1110.5
2016-Jul-21 05:33S 36°51' E 150°26'10 9.8
2016-Jul-21 04:33S 37°00' E 150°21'10 9.8
2016-Jul-21 03:34S 37°09' E 150°17'1010.4
2016-Jul-21 02:34S 37°19' E 150°12'1211.6
2016-Jul-21 01:34S 37°29' E 150°06'1110.8
2016-Jul-21 00:33S 37°38' E 149°58'1111.2
2016-Jul-20 23:34S 37°46' E 149°48'1111.3
2016-Jul-20 22:34S 37°55' E 149°39'1111.1
2016-Jul-20 21:34S 38°03' E 149°29'1211.4
2016-Jul-20 20:33S 38°12' E 149°20'1211.7
2016-Jul-20 19:33S 38°20' E 149°10'1511.8
2016-Jul-20 18:16S 38°32' E 148°57'912.3
2016-Jul-20 17:32S 38°39' E 148°49'1212.1
2016-Jul-20 16:33S 38°47' E 148°39'1212.0
2016-Jul-20 15:34S 38°56' E 148°29'1211.8
2016-Jul-20 14:34S 39°05' E 148°19'1111.0
2016-Jul-20 13:31S 39°14' E 148°09'1010.9
2016-Jul-20 12:33S 39°22' E 148°00'1110.5
2016-Jul-20 11:30S 39°30' E 147°51'1010.4
2016-Jul-20 10:33S 39°37' E 147°42'9511.7
2016-Jul-20 02:29S 41°01' E 146°45'9 9.4
2016-Jul-20 01:33S 41°09' E 146°51'1 0.3
2016-Jul-19 21:21S 41°08' E 146°52'1 0.6
2016-Jul-19 20:20S 41°08' E 146°51'0 0.0
2016-Jul-18 10:20S 41°08' E 146°51'0 0.0
2016-Jul-17 23:32S 41°08' E 146°51'0 0.0
2016-Jul-17 20:26S 41°08' E 146°51'0 0.0
2016-Jul-17 18:32S 41°08' E 146°51'0 0.0
2016-Jul-17 17:26S 41°08' E 146°51'0 0.0
2016-Jul-17 15:32S 41°08' E 146°51'0 0.0
2016-Jul-17 13:32S 41°08' E 146°51'0 0.0
2016-Jul-17 01:20S 41°08' E 146°51'0 0.0
2016-Jul-17 00:32S 41°08' E 146°51'0 0.0
2016-Jul-16 23:08S 41°08' E 146°51'0 0.0
2016-Jul-16 22:32S 41°08' E 146°51'0 0.1
2016-Jul-16 21:30S 41°08' E 146°51'6 5.6
2016-Jul-16 20:31S 41°04' E 146°47'6 6.2
2016-Jul-16 19:33S 40°58' E 146°45'8 6.6
2016-Jul-16 18:24S 40°51' E 146°49'5 5.6
2016-Jul-16 17:31S 40°47' E 146°52'7910.9
2016-Jul-16 10:13S 39°37' E 147°42'1212.6
2016-Jul-16 09:14S 39°28' E 147°53'912.7
2016-Jul-16 08:31S 39°21' E 148°01'1212.7
2016-Jul-16 07:33S 39°12' E 148°11'1312.6
2016-Jul-16 06:33S 39°03' E 148°22'2411.8
2016-Jul-16 04:34S 38°45' E 148°42'1211.6
2016-Jul-16 03:33S 38°36' E 148°52'1211.5
2016-Jul-16 02:31S 38°27' E 149°02'1111.5
2016-Jul-16 01:33S 38°19' E 149°11'1111.4
2016-Jul-16 00:33S 38°10' E 149°21'1211.6
2016-Jul-15 23:33S 38°02' E 149°31'1111.1
2016-Jul-15 22:33S 37°54' E 149°40'1010.5
2016-Jul-15 21:33S 37°46' E 149°49'1111.0
2016-Jul-15 20:33S 37°38' E 149°58'1110.9
2016-Jul-15 19:33S 37°29' E 150°07'1111.2
2016-Jul-15 18:33S 37°19' E 150°12'1111.0
2016-Jul-15 17:34S 37°08' E 150°17'1111.1
2016-Jul-15 16:33S 36°58' E 150°23'1111.1
2016-Jul-15 15:34S 36°48' E 150°27'1111.2
2016-Jul-15 14:33S 36°37' E 150°31'1111.1
2016-Jul-15 13:34S 36°27' E 150°36'1111.0
2016-Jul-15 12:34S 36°16' E 150°40'20711.3
2016-Jul-14 18:17S 33°09' E 152°29'1110.4
2016-Jul-14 17:10S 32°59' E 152°35'710.6
2016-Jul-14 16:33S 32°53' E 152°38'1010.2
2016-Jul-14 15:33S 32°44' E 152°43'1010.0
2016-Jul-14 14:33S 32°35' E 152°48'  
Track history (hours):
 
Tides and Currents Weather Stations Pressure Air Temp Water Temp Dewpoint Dewpoint Depression Visibility Wind Speed Wind Dir Waves Ship Positions

Anemona

Last reported at 2016-Jul-23 20:08 UTC. Time now 2016-Aug-24 10:19 UTC.
Position S 26°59' E 153°52'.
Warning: this ship's position is 31 days out of date.

Length 192 m; draft 11.3 m.

Type: Cargo ship. MMSI: 355664000.

Date/timePositionNaut miles runAvg speedWind from/ knotsBaromVisibWave heightAir tempDewpointWater temp
2016-Jul-23 20:08S 26°59' E 153°52'810.3
2016-Jul-23 19:23S 27°07' E 153°51'29 9.8
2016-Jul-23 16:23S 27°36' E 153°50'8 9.6
2016-Jul-23 15:34S 27°44' E 153°50'1110.1
2016-Jul-23 14:28S 27°55' E 153°48'259 9.9
2016-Jul-22 12:13S 32°08' E 152°45'910.8
2016-Jul-22 11:23S 32°17' E 152°42'910.4
2016-Jul-22 10:33S 32°25' E 152°39'1110.6
2016-Jul-22 09:34S 32°35' E 152°34'1111.2
2016-Jul-22 08:34S 32°45' E 152°29'1111.2
2016-Jul-22 07:34S 32°55' E 152°23'2311.3
2016-Jul-22 05:34S 33°16' E 152°12'148 9.3
2016-Jul-21 13:33S 35°34' E 151°05'1110.7
2016-Jul-21 12:33S 35°44' E 151°01'1010.4
2016-Jul-21 11:34S 35°53' E 150°56'1010.1
2016-Jul-21 10:33S 36°03' E 150°51'1010.3
2016-Jul-21 09:33S 36°12' E 150°46'1010.4
2016-Jul-21 08:33S 36°22' E 150°41'1110.6
2016-Jul-21 07:34S 36°32' E 150°36'1110.5
2016-Jul-21 06:34S 36°41' E 150°31'1110.5
2016-Jul-21 05:33S 36°51' E 150°26'10 9.8
2016-Jul-21 04:33S 37°00' E 150°21'10 9.8
2016-Jul-21 03:34S 37°09' E 150°17'1010.4
2016-Jul-21 02:34S 37°19' E 150°12'1211.6
2016-Jul-21 01:34S 37°29' E 150°06'1110.8
2016-Jul-21 00:33S 37°38' E 149°58'1111.2
2016-Jul-20 23:34S 37°46' E 149°48'1111.3
2016-Jul-20 22:34S 37°55' E 149°39'1111.1
2016-Jul-20 21:34S 38°03' E 149°29'1211.4
2016-Jul-20 20:33S 38°12' E 149°20'1211.7
2016-Jul-20 19:33S 38°20' E 149°10'1511.8
2016-Jul-20 18:16S 38°32' E 148°57'912.3
2016-Jul-20 17:32S 38°39' E 148°49'1212.1
2016-Jul-20 16:33S 38°47' E 148°39'1212.0
2016-Jul-20 15:34S 38°56' E 148°29'1211.8
2016-Jul-20 14:34S 39°05' E 148°19'1111.0
2016-Jul-20 13:31S 39°14' E 148°09'1010.9
2016-Jul-20 12:33S 39°22' E 148°00'1110.5
2016-Jul-20 11:30S 39°30' E 147°51'1010.4
2016-Jul-20 10:33S 39°37' E 147°42'9511.7
2016-Jul-20 02:29S 41°01' E 146°45'9 9.4
2016-Jul-20 01:33S 41°09' E 146°51'1 0.3
2016-Jul-19 21:21S 41°08' E 146°52'1 0.6
2016-Jul-19 20:20S 41°08' E 146°51'0 0.0
2016-Jul-18 10:20S 41°08' E 146°51'0 0.0
2016-Jul-17 23:32S 41°08' E 146°51'0 0.0
2016-Jul-17 20:26S 41°08' E 146°51'0 0.0
2016-Jul-17 18:32S 41°08' E 146°51'0 0.0
2016-Jul-17 17:26S 41°08' E 146°51'0 0.0
2016-Jul-17 15:32S 41°08' E 146°51'0 0.0
2016-Jul-17 13:32S 41°08' E 146°51'0 0.0
2016-Jul-17 01:20S 41°08' E 146°51'0 0.0
2016-Jul-17 00:32S 41°08' E 146°51'0 0.0
2016-Jul-16 23:08S 41°08' E 146°51'0 0.0
2016-Jul-16 22:32S 41°08' E 146°51'0 0.1
2016-Jul-16 21:30S 41°08' E 146°51'6 5.6
2016-Jul-16 20:31S 41°04' E 146°47'6 6.2
2016-Jul-16 19:33S 40°58' E 146°45'8 6.6
2016-Jul-16 18:24S 40°51' E 146°49'5 5.6
2016-Jul-16 17:31S 40°47' E 146°52'7910.9
2016-Jul-16 10:13S 39°37' E 147°42'1212.6
2016-Jul-16 09:14S 39°28' E 147°53'912.7
2016-Jul-16 08:31S 39°21' E 148°01'1212.7
2016-Jul-16 07:33S 39°12' E 148°11'1312.6
2016-Jul-16 06:33S 39°03' E 148°22'2411.8
2016-Jul-16 04:34S 38°45' E 148°42'1211.6
2016-Jul-16 03:33S 38°36' E 148°52'1211.5
2016-Jul-16 02:31S 38°27' E 149°02'1111.5
2016-Jul-16 01:33S 38°19' E 149°11'1111.4
2016-Jul-16 00:33S 38°10' E 149°21'1211.6
2016-Jul-15 23:33S 38°02' E 149°31'1111.1
2016-Jul-15 22:33S 37°54' E 149°40'1010.5
2016-Jul-15 21:33S 37°46' E 149°49'1111.0
2016-Jul-15 20:33S 37°38' E 149°58'1110.9
2016-Jul-15 19:33S 37°29' E 150°07'1111.2
2016-Jul-15 18:33S 37°19' E 150°12'1111.0
2016-Jul-15 17:34S 37°08' E 150°17'1111.1
2016-Jul-15 16:33S 36°58' E 150°23'1111.1
2016-Jul-15 15:34S 36°48' E 150°27'1111.2
2016-Jul-15 14:33S 36°37' E 150°31'1111.1
2016-Jul-15 13:34S 36°27' E 150°36'1111.0
2016-Jul-15 12:34S 36°16' E 150°40'20711.3
2016-Jul-14 18:17S 33°09' E 152°29'1110.4
2016-Jul-14 17:10S 32°59' E 152°35'710.6
2016-Jul-14 16:33S 32°53' E 152°38'1010.2
2016-Jul-14 15:33S 32°44' E 152°43'1010.0
2016-Jul-14 14:33S 32°35' E 152°48'  

Dump ship's entire track history